createdAt,value
2022-10-26T00:01:29.637Z,8.17
2022-10-26T00:04:36.113Z,8.60
2022-10-26T00:07:42.328Z,8.29
2022-10-26T00:10:48.660Z,8.36
2022-10-26T00:13:55.043Z,8.35
2022-10-26T00:17:03.099Z,8.57
2022-10-26T00:20:10.349Z,8.57
2022-10-26T00:23:16.551Z,8.38
2022-10-26T00:26:22.834Z,8.31
2022-10-26T00:29:29.375Z,8.17
2022-10-26T00:32:37.347Z,8.23
2022-10-26T00:35:46.610Z,8.14
2022-10-26T00:38:54.413Z,8.33
2022-10-26T00:42:00.735Z,7.54
2022-10-26T00:45:18.664Z,6.70
2022-10-26T00:48:29.952Z,7.36
2022-10-26T00:51:40.020Z,6.71
2022-10-26T00:54:46.894Z,7.52
2022-10-26T00:57:54.782Z,7.62
2022-10-26T01:01:00.774Z,7.61
2022-10-26T01:04:08.544Z,7.68
2022-10-26T01:07:15.811Z,7.70
2022-10-26T01:10:22.658Z,7.43
2022-10-26T01:13:31.459Z,7.06
2022-10-26T01:16:50.062Z,7.46
2022-10-26T01:20:36.888Z,7.69
2022-10-26T01:24:05.946Z,7.92
2022-10-26T01:27:26.339Z,7.61
2022-10-26T01:30:40.287Z,7.80
2022-10-26T01:33:52.496Z,7.23
2022-10-26T01:37:02.312Z,7.10
2022-10-26T01:40:13.375Z,6.55
2022-10-26T01:43:21.327Z,6.77
2022-10-26T01:46:34.015Z,6.84
2022-10-26T01:49:43.797Z,6.68
2022-10-26T01:52:51.767Z,7.02
2022-10-26T01:55:58.018Z,7.39
2022-10-26T01:59:34.862Z,6.69
2022-10-26T02:02:56.056Z,6.91
2022-10-26T02:06:13.352Z,6.75
2022-10-26T02:09:28.788Z,6.67
2022-10-26T02:12:46.954Z,7.09
2022-10-26T02:15:58.450Z,6.61
2022-10-26T02:19:11.678Z,7.07
2022-10-26T02:22:23.378Z,6.79
2022-10-26T02:25:33.382Z,6.75
2022-10-26T02:28:43.817Z,6.52
2022-10-26T02:31:52.799Z,6.67
2022-10-26T02:35:03.180Z,6.77
2022-10-26T02:38:12.230Z,6.22
2022-10-26T02:41:21.676Z,6.73
2022-10-26T02:44:30.963Z,6.97
2022-10-26T02:47:37.502Z,7.37
2022-10-26T02:50:55.124Z,7.25
2022-10-26T02:54:08.703Z,7.24
2022-10-26T02:57:18.416Z,7.19
2022-10-26T03:00:24.619Z,7.00
2022-10-26T03:03:30.723Z,5.96
2022-10-26T03:06:38.300Z,5.67
2022-10-26T03:09:44.320Z,6.55
2022-10-26T03:12:50.993Z,6.16
2022-10-26T03:15:58.207Z,6.15
2022-10-26T03:19:07.299Z,6.21
2022-10-26T03:22:15.000Z,6.66
2022-10-26T03:25:20.935Z,6.99
2022-10-26T03:28:27.788Z,6.94
2022-10-26T03:31:33.851Z,6.84
2022-10-26T03:34:40.088Z,7.12
2022-10-26T03:37:48.020Z,6.83
2022-10-26T03:40:54.116Z,6.35
2022-10-26T03:44:00.591Z,6.28
2022-10-26T03:47:06.991Z,5.64
2022-10-26T03:50:14.791Z,5.61
2022-10-26T03:53:22.329Z,5.81
2022-10-26T03:56:28.583Z,6.16
2022-10-26T03:59:34.805Z,6.02
2022-10-26T04:02:40.998Z,6.15
2022-10-26T04:05:47.226Z,6.02
2022-10-26T04:08:58.348Z,5.71
2022-10-26T04:12:04.579Z,5.87
2022-10-26T04:15:11.488Z,6.08
2022-10-26T04:18:17.679Z,6.45
2022-10-26T04:21:23.540Z,6.38
2022-10-26T04:24:31.111Z,5.56
2022-10-26T04:27:37.087Z,5.10
2022-10-26T04:30:43.698Z,4.84
2022-10-26T04:33:49.938Z,4.94
2022-10-26T04:36:57.141Z,4.77
2022-10-26T04:43:15.865Z,5.56
2022-10-26T04:46:21.880Z,5.47
2022-10-26T04:49:28.412Z,5.90
2022-10-26T04:52:34.718Z,5.75
2022-10-26T04:55:42.477Z,6.13
2022-10-26T04:58:48.587Z,6.25
2022-10-26T05:01:55.020Z,6.62
2022-10-26T05:08:13.000Z,6.66
2022-10-26T05:11:20.740Z,6.86
2022-10-26T05:14:26.732Z,6.58
2022-10-26T05:17:33.047Z,5.85
2022-10-26T05:20:39.250Z,5.74
2022-10-26T05:23:47.094Z,5.88
2022-10-26T05:26:54.621Z,5.62
2022-10-26T05:30:00.616Z,5.67
2022-10-26T05:33:07.715Z,6.16
2022-10-26T05:36:13.907Z,6.69
2022-10-26T05:39:20.087Z,6.84
2022-10-26T05:42:27.761Z,7.08
2022-10-26T05:45:33.814Z,7.20
2022-10-26T05:48:40.048Z,7.10
2022-10-26T05:51:46.269Z,7.61
2022-10-26T05:54:52.452Z,8.54
2022-10-26T05:58:00.718Z,8.69
2022-10-26T06:01:15.327Z,8.62
2022-10-26T06:04:31.199Z,8.86
2022-10-26T06:07:38.059Z,9.16
2022-10-26T06:10:44.686Z,9.03
2022-10-26T06:13:54.842Z,9.03
2022-10-26T06:17:13.275Z,9.07
2022-10-26T06:20:40.868Z,9.18
2022-10-26T06:23:53.378Z,9.63
2022-10-26T06:27:06.643Z,9.48
2022-10-26T06:30:14.603Z,9.57
2022-10-26T06:33:30.328Z,9.84
2022-10-26T06:36:37.778Z,10.25
2022-10-26T06:39:49.992Z,10.80
2022-10-26T06:42:59.448Z,10.79
2022-10-26T06:46:17.693Z,11.17
2022-10-26T06:49:30.308Z,11.45
2022-10-26T06:52:42.867Z,11.57
2022-10-26T06:55:51.644Z,12.07
2022-10-26T06:59:07.036Z,11.90
2022-10-26T07:02:15.164Z,12.61
2022-10-26T07:05:21.123Z,12.40
2022-10-26T07:08:27.431Z,12.94
2022-10-26T07:11:33.814Z,12.78
2022-10-26T07:14:40.236Z,13.23
2022-10-26T07:17:49.681Z,13.45
2022-10-26T07:20:56.008Z,13.59
2022-10-26T07:24:02.461Z,13.47
2022-10-26T07:27:09.011Z,13.79
2022-10-26T07:30:15.266Z,13.92
2022-10-26T07:33:22.925Z,14.16
2022-10-26T07:36:30.407Z,14.05
2022-10-26T07:39:36.574Z,14.33
2022-10-26T07:42:44.285Z,14.68
2022-10-26T07:45:54.033Z,14.99
2022-10-26T07:49:01.682Z,15.23
2022-10-26T07:52:07.640Z,15.35
2022-10-26T07:55:14.274Z,15.85
2022-10-26T07:58:23.645Z,16.08
2022-10-26T08:01:29.818Z,15.76
2022-10-26T08:04:37.175Z,16.10
2022-10-26T08:07:44.850Z,16.01
2022-10-26T08:10:52.370Z,16.02
2022-10-26T08:13:58.655Z,16.03
2022-10-26T08:17:04.971Z,16.57
2022-10-26T08:20:13.458Z,16.90
2022-10-26T08:23:19.291Z,16.74
2022-10-26T08:26:25.662Z,17.17
2022-10-26T08:29:31.938Z,17.15
2022-10-26T08:32:38.471Z,17.36
2022-10-26T08:35:45.976Z,17.86
2022-10-26T08:38:52.642Z,18.15
2022-10-26T08:42:05.677Z,18.22
2022-10-26T08:45:19.468Z,18.25
2022-10-26T08:48:30.419Z,18.71
2022-10-26T08:51:41.463Z,18.63
2022-10-26T08:54:53.222Z,19.11
2022-10-26T08:58:02.646Z,19.41
2022-10-26T09:01:10.525Z,19.43
2022-10-26T09:04:17.078Z,19.27
2022-10-26T09:07:41.415Z,19.88
2022-10-26T09:11:01.203Z,20.15
2022-10-26T09:14:16.650Z,20.26
2022-10-26T09:17:38.076Z,20.38
2022-10-26T09:20:55.941Z,20.68
2022-10-26T09:24:09.149Z,20.80
2022-10-26T09:27:22.653Z,21.09
2022-10-26T09:30:30.384Z,21.44
2022-10-26T09:33:40.959Z,21.47
2022-10-26T09:36:47.379Z,21.22
2022-10-26T09:40:08.735Z,21.87
2022-10-26T09:43:19.742Z,22.28
2022-10-26T09:46:32.484Z,22.26
2022-10-26T09:49:48.745Z,21.78
2022-10-26T09:52:55.043Z,21.99
2022-10-26T09:56:07.000Z,22.34
2022-10-26T09:59:14.559Z,22.60
2022-10-26T10:02:37.230Z,22.62
2022-10-26T10:05:51.366Z,22.45
2022-10-26T10:09:11.105Z,22.65
2022-10-26T10:12:22.428Z,23.07
2022-10-26T10:15:28.579Z,23.08
2022-10-26T10:18:36.412Z,22.73
2022-10-26T10:21:49.710Z,22.72
2022-10-26T10:24:57.558Z,22.58
2022-10-26T10:31:33.604Z,23.08
2022-10-26T10:34:39.702Z,22.82
2022-10-26T10:37:47.010Z,23.48
2022-10-26T10:40:56.618Z,23.22
2022-10-26T10:44:09.210Z,23.02
2022-10-26T10:47:24.141Z,23.07
2022-10-26T10:50:31.427Z,22.99
2022-10-26T10:53:45.167Z,23.01
2022-10-26T10:56:54.513Z,23.08
2022-10-26T11:00:05.825Z,23.50
2022-10-26T11:03:34.625Z,22.82
2022-10-26T11:06:43.871Z,23.45
2022-10-26T11:13:11.709Z,23.03
2022-10-26T11:16:24.972Z,22.98
2022-10-26T11:19:36.351Z,23.02
2022-10-26T11:22:48.445Z,23.23
2022-10-26T11:26:00.547Z,23.16
2022-10-26T11:29:13.487Z,23.27
2022-10-26T11:32:25.016Z,22.79
2022-10-26T11:35:34.459Z,23.36
2022-10-26T11:38:56.346Z,22.86
2022-10-26T11:42:08.665Z,23.32
2022-10-26T11:45:23.631Z,23.16
2022-10-26T11:48:37.851Z,23.22
2022-10-26T11:51:51.354Z,23.39
2022-10-26T11:55:00.659Z,23.14
2022-10-26T11:58:07.014Z,23.30
2022-10-26T12:01:16.861Z,23.30
2022-10-26T12:04:31.004Z,23.29
2022-10-26T12:07:40.223Z,23.32
2022-10-26T12:10:54.030Z,22.80
2022-10-26T12:14:06.040Z,23.28
2022-10-26T12:17:18.518Z,23.25
2022-10-26T12:21:03.657Z,23.54
2022-10-26T12:24:28.416Z,23.40
2022-10-26T12:27:51.958Z,23.04
2022-10-26T12:31:43.443Z,23.26
2022-10-26T12:35:02.131Z,23.63
2022-10-26T12:38:50.017Z,23.43
2022-10-26T12:41:59.920Z,23.66
2022-10-26T12:45:20.127Z,24.04
2022-10-26T12:48:41.338Z,23.95
2022-10-26T12:51:47.667Z,23.80
2022-10-26T12:55:16.437Z,23.62
2022-10-26T12:58:46.648Z,23.64
2022-10-26T13:02:40.174Z,23.54
2022-10-26T13:06:18.390Z,23.46
2022-10-26T13:09:28.957Z,23.40
2022-10-26T13:12:48.113Z,23.59
2022-10-26T13:15:58.768Z,23.31
2022-10-26T13:19:05.014Z,23.39
2022-10-26T13:22:17.316Z,23.48
2022-10-26T13:25:26.185Z,23.75
2022-10-26T13:28:43.521Z,23.65
2022-10-26T13:31:59.128Z,23.23
2022-10-26T13:35:07.658Z,23.09
2022-10-26T13:38:19.671Z,23.18
2022-10-26T13:41:36.353Z,23.41
2022-10-26T13:44:49.368Z,23.03
2022-10-26T13:48:03.107Z,22.89
2022-10-26T13:51:21.254Z,22.49
2022-10-26T13:54:34.038Z,22.27
2022-10-26T13:57:44.734Z,22.06
2022-10-26T14:01:14.834Z,21.86
2022-10-26T14:04:28.764Z,21.57
2022-10-26T14:07:38.799Z,21.41
2022-10-26T14:10:48.666Z,21.15
2022-10-26T14:13:55.421Z,21.10
2022-10-26T14:17:01.820Z,21.00
2022-10-26T14:20:19.581Z,21.00
2022-10-26T14:23:30.398Z,20.86
2022-10-26T14:26:41.425Z,20.70
2022-10-26T14:30:03.736Z,20.46
2022-10-26T14:33:20.856Z,20.34
2022-10-26T14:36:33.128Z,20.31
2022-10-26T14:39:43.879Z,20.14
2022-10-26T14:42:52.751Z,19.90
2022-10-26T14:45:59.338Z,19.68
2022-10-26T14:49:05.952Z,19.48
2022-10-26T14:52:24.091Z,19.26
2022-10-26T14:55:33.126Z,18.95
2022-10-26T14:58:40.693Z,18.85
2022-10-26T15:01:52.963Z,18.69
2022-10-26T15:05:01.115Z,18.46
2022-10-26T15:08:52.594Z,18.38
2022-10-26T15:12:06.019Z,18.23
2022-10-26T15:18:36.328Z,17.91
2022-10-26T15:21:48.844Z,17.58
2022-10-26T15:24:57.523Z,17.61
2022-10-26T15:28:12.950Z,17.30
2022-10-26T15:31:34.494Z,17.10
2022-10-26T15:34:40.644Z,16.97
2022-10-26T15:37:47.489Z,16.69
2022-10-26T15:40:53.761Z,16.45
2022-10-26T15:44:06.020Z,16.40
2022-10-26T15:47:20.372Z,16.34
2022-10-26T15:50:28.298Z,16.30
2022-10-26T15:53:34.294Z,16.05
2022-10-26T15:56:43.730Z,15.92
2022-10-26T15:59:51.018Z,15.58
2022-10-26T16:02:57.550Z,15.58
2022-10-26T16:06:04.162Z,15.55
2022-10-26T16:09:14.749Z,15.34
2022-10-26T16:12:21.099Z,15.88
2022-10-26T16:15:28.897Z,16.14
2022-10-26T16:18:34.856Z,16.60
2022-10-26T16:21:41.956Z,16.64
2022-10-26T16:24:48.024Z,16.89
2022-10-26T16:27:55.812Z,16.08
2022-10-26T16:31:04.444Z,15.39
2022-10-26T16:34:10.436Z,15.00
2022-10-26T16:37:16.598Z,14.51
2022-10-26T16:40:22.918Z,14.25
2022-10-26T16:43:29.365Z,14.20
2022-10-26T16:46:37.233Z,14.04
2022-10-26T16:49:44.716Z,14.10
2022-10-26T16:52:50.879Z,14.20
2022-10-26T16:56:03.222Z,14.09
2022-10-26T16:59:10.620Z,14.23
2022-10-26T17:02:18.518Z,14.77
2022-10-26T17:05:24.677Z,14.70
2022-10-26T17:08:32.729Z,15.18
2022-10-26T17:11:39.011Z,14.71
2022-10-26T17:14:45.019Z,14.63
2022-10-26T17:17:52.748Z,14.33
2022-10-26T17:20:59.255Z,14.40
2022-10-26T17:24:06.861Z,14.36
2022-10-26T17:27:13.198Z,14.65
2022-10-26T17:30:19.862Z,14.41
2022-10-26T17:33:27.656Z,13.81
2022-10-26T17:36:33.769Z,13.85
2022-10-26T17:39:40.229Z,13.80
2022-10-26T17:42:46.590Z,13.65
2022-10-26T17:45:53.001Z,14.00
2022-10-26T17:49:01.835Z,13.71
2022-10-26T17:52:08.149Z,13.63
2022-10-26T17:55:14.597Z,13.36
2022-10-26T17:58:20.723Z,13.29
2022-10-26T18:01:28.502Z,13.20
2022-10-26T18:04:36.111Z,13.35
2022-10-26T18:07:42.088Z,13.15
2022-10-26T18:10:48.953Z,12.98
2022-10-26T18:13:55.384Z,12.66
2022-10-26T18:17:01.844Z,12.61
2022-10-26T18:20:10.661Z,12.58
2022-10-26T18:23:17.199Z,12.62
2022-10-26T18:26:24.673Z,12.49
2022-10-26T18:29:31.830Z,12.44
2022-10-26T18:32:39.313Z,12.37
2022-10-26T18:35:47.461Z,12.30
2022-10-26T18:38:54.395Z,12.45
2022-10-26T18:42:00.729Z,12.21
2022-10-26T18:45:07.980Z,12.25
2022-10-26T18:48:14.023Z,12.19
2022-10-26T18:51:25.595Z,12.27
2022-10-26T18:54:31.923Z,12.03
2022-10-26T18:57:38.092Z,11.84
2022-10-26T19:00:44.548Z,11.47
2022-10-26T19:03:54.926Z,11.52
2022-10-26T19:07:02.334Z,11.46
2022-10-26T19:10:09.952Z,11.85
2022-10-26T19:13:16.069Z,11.65
2022-10-26T19:16:40.624Z,11.63
2022-10-26T19:19:49.727Z,11.47
2022-10-26T19:22:57.372Z,11.34
2022-10-26T19:26:04.402Z,11.31
2022-10-26T19:29:13.915Z,11.14
2022-10-26T19:32:20.105Z,10.93
2022-10-26T19:35:26.279Z,11.14
2022-10-26T19:38:34.585Z,10.61
2022-10-26T19:41:40.721Z,10.39
2022-10-26T19:44:46.910Z,10.53
2022-10-26T19:47:53.173Z,10.41
2022-10-26T19:50:59.185Z,10.52
2022-10-26T19:54:07.662Z,10.18
2022-10-26T19:57:13.921Z,10.22
2022-10-26T20:00:20.584Z,10.12
2022-10-26T20:03:29.098Z,10.68
2022-10-26T20:06:35.621Z,10.81
2022-10-26T20:09:43.184Z,10.80
2022-10-26T20:12:49.833Z,10.69
2022-10-26T20:15:56.106Z,10.45
2022-10-26T20:19:02.607Z,10.04
2022-10-26T20:22:08.891Z,10.15
2022-10-26T20:25:16.911Z,9.90
2022-10-26T20:28:23.532Z,9.57
2022-10-26T20:31:29.687Z,9.69
2022-10-26T20:34:36.039Z,9.69
2022-10-26T20:37:42.965Z,10.05
2022-10-26T20:40:56.030Z,9.95
2022-10-26T20:44:02.755Z,9.30
2022-10-26T20:47:10.222Z,8.68
2022-10-26T20:50:17.347Z,9.05
2022-10-26T20:53:31.371Z,9.24
2022-10-26T20:56:42.629Z,9.03
2022-10-26T20:59:51.135Z,9.21
2022-10-26T21:02:57.107Z,9.04
2022-10-26T21:06:03.209Z,9.60
2022-10-26T21:09:10.315Z,9.45
2022-10-26T21:12:17.839Z,9.74
2022-10-26T21:15:23.606Z,9.67
2022-10-26T21:18:29.894Z,9.14
2022-10-26T21:21:36.027Z,9.01
2022-10-26T21:24:42.157Z,9.20
2022-10-26T21:27:50.337Z,8.72
2022-10-26T21:30:56.774Z,8.82
2022-10-26T21:34:03.063Z,8.85
2022-10-26T21:37:09.463Z,9.06
2022-10-26T21:40:16.380Z,9.16
2022-10-26T21:43:24.106Z,9.31
2022-10-26T21:46:30.673Z,9.31
2022-10-26T21:49:37.554Z,9.45
2022-10-26T21:52:43.775Z,9.24
2022-10-26T21:55:50.301Z,8.77
2022-10-26T21:59:00.216Z,8.13
2022-10-26T22:02:06.583Z,7.69
2022-10-26T22:05:12.570Z,8.22
2022-10-26T22:08:18.761Z,8.36
2022-10-26T22:11:26.133Z,8.52
2022-10-26T22:14:33.344Z,8.17
2022-10-26T22:17:40.032Z,8.32
2022-10-26T22:20:46.111Z,8.16
2022-10-26T22:23:52.477Z,8.67
2022-10-26T22:26:58.566Z,8.34
2022-10-26T22:30:07.800Z,8.09
2022-10-26T22:33:14.430Z,8.22
2022-10-26T22:36:20.294Z,7.99
2022-10-26T22:39:26.661Z,8.46
2022-10-26T22:42:33.000Z,7.80
2022-10-26T22:45:40.842Z,8.29
2022-10-26T22:48:47.276Z,7.71
2022-10-26T22:51:53.378Z,7.25
2022-10-26T22:54:59.945Z,7.63
2022-10-26T22:58:06.312Z,7.91
2022-10-26T23:01:15.906Z,8.19
2022-10-26T23:04:22.352Z,8.13
2022-10-26T23:07:30.649Z,7.99
2022-10-26T23:10:37.180Z,8.15
2022-10-26T23:13:43.747Z,8.53
2022-10-26T23:16:51.282Z,8.45
2022-10-26T23:19:57.549Z,7.32
2022-10-26T23:23:04.232Z,7.01
2022-10-26T23:26:13.029Z,6.96
2022-10-26T23:29:19.033Z,7.74
2022-10-26T23:32:26.476Z,7.91
2022-10-26T23:35:32.552Z,8.22
2022-10-26T23:38:38.766Z,7.50
2022-10-26T23:41:45.201Z,7.97
2022-10-26T23:44:51.267Z,7.48
2022-10-26T23:47:59.062Z,7.68
2022-10-26T23:51:05.269Z,8.14
2022-10-26T23:54:11.238Z,7.63
2022-10-26T23:57:17.519Z,7.24
